Terminal Aerodrome Forecast
Issued by NWS Wichita, KS

Home | Current Version | Previous Version | Graphics & Text | Print | Product List | Glossary On
Versions: 1 2 3 4 5 6 7 8 9 10 11 12 13 14 15 16 17 18 19
000
FTUS43 KICT 302323
TAFICT
TAF
KICT 302323Z 3100/3124 13009KT P6SM FEW250
     FM310600 14009KT P6SM SCT070
     FM311800 18013G21KT P6SM FEW040=

USA.gov is the U.S. government's official web portal to all federal, state and local government web resources and services.